sensor_id;sensor_type;location;lat;lon;timestamp;P1;durP1;ratioP1;P2;durP2;ratioP2
74448;SDS011;62878;51.026;4.472;2022-09-03T00:02:23;0.20;;;0.15;;
74448;SDS011;62878;51.026;4.472;2022-09-03T00:05:02;0.20;;;0.20;;
74448;SDS011;62878;51.026;4.472;2022-09-03T00:13:20;0.70;;;0.20;;
74448;SDS011;62878;51.026;4.472;2022-09-03T00:15:50;0.38;;;0.20;;
74448;SDS011;62878;51.026;4.472;2022-09-03T00:18:22;0.63;;;0.20;;
74448;SDS011;62878;51.026;4.472;2022-09-03T00:20:54;0.30;;;0.30;;
74448;SDS011;62878;51.026;4.472;2022-09-03T00:23:25;1.27;;;0.20;;
74448;SDS011;62878;51.026;4.472;2022-09-03T00:25:54;0.40;;;0.20;;
74448;SDS011;62878;51.026;4.472;2022-09-03T00:28:26;0.20;;;0.20;;
74448;SDS011;62878;51.026;4.472;2022-09-03T00:31:09;0.20;;;0.20;;
74448;SDS011;62878;51.026;4.472;2022-09-03T00:33:41;0.20;;;0.20;;
74448;SDS011;62878;51.026;4.472;2022-09-03T00:36:15;1.45;;;0.20;;
74448;SDS011;62878;51.026;4.472;2022-09-03T00:38:45;0.55;;;0.20;;
74448;SDS011;62878;51.026;4.472;2022-09-03T00:49:13;0.63;;;0.20;;
74448;SDS011;62878;51.026;4.472;2022-09-03T00:59:54;0.30;;;0.20;;
74448;SDS011;62878;51.026;4.472;2022-09-03T01:02:45;0.20;;;0.20;;
74448;SDS011;62878;51.026;4.472;2022-09-03T01:05:30;0.20;;;0.17;;
74448;SDS011;62878;51.026;4.472;2022-09-03T01:14:06;0.63;;;0.30;;
74448;SDS011;62878;51.026;4.472;2022-09-03T01:20:07;1.38;;;0.30;;
74448;SDS011;62878;51.026;4.472;2022-09-03T01:25:48;0.22;;;0.20;;
74448;SDS011;62878;51.026;4.472;2022-09-03T01:31:00;0.30;;;0.20;;
74448;SDS011;62878;51.026;4.472;2022-09-03T01:33:34;1.25;;;0.20;;
74448;SDS011;62878;51.026;4.472;2022-09-03T01:39:02;0.30;;;0.20;;
74448;SDS011;62878;51.026;4.472;2022-09-03T01:44:31;0.45;;;0.15;;
74448;SDS011;62878;51.026;4.472;2022-09-03T01:47:17;0.73;;;0.22;;
74448;SDS011;62878;51.026;4.472;2022-09-03T01:50:15;0.77;;;0.20;;
74448;SDS011;62878;51.026;4.472;2022-09-03T01:52:58;0.30;;;0.30;;
74448;SDS011;62878;51.026;4.472;2022-09-03T01:55:39;0.20;;;0.10;;
74448;SDS011;62878;51.026;4.472;2022-09-03T01:58:12;1.13;;;0.20;;
74448;SDS011;62878;51.026;4.472;2022-09-03T02:00:44;0.90;;;0.20;;
74448;SDS011;62878;51.026;4.472;2022-09-03T02:03:15;0.30;;;0.20;;
74448;SDS011;62878;51.026;4.472;2022-09-03T02:05:41;0.28;;;0.20;;
74448;SDS011;62878;51.026;4.472;2022-09-03T02:08:08;0.10;;;0.10;;
74448;SDS011;62878;51.026;4.472;2022-09-03T02:15:40;0.17;;;0.10;;
74448;SDS011;62878;51.026;4.472;2022-09-03T02:18:12;0.30;;;0.20;;
74448;SDS011;62878;51.026;4.472;2022-09-03T02:20:41;0.28;;;0.20;;
74448;SDS011;62878;51.026;4.472;2022-09-03T02:23:06;0.20;;;0.20;;
74448;SDS011;62878;51.026;4.472;2022-09-03T02:25:34;0.20;;;0.17;;
74448;SDS011;62878;51.026;4.472;2022-09-03T02:28:03;0.20;;;0.20;;
74448;SDS011;62878;51.026;4.472;2022-09-03T02:30:30;0.47;;;0.20;;
74448;SDS011;62878;51.026;4.472;2022-09-03T02:32:55;0.25;;;0.22;;
74448;SDS011;62878;51.026;4.472;2022-09-03T02:35:21;0.20;;;0.20;;
74448;SDS011;62878;51.026;4.472;2022-09-03T02:37:46;0.30;;;0.20;;
74448;SDS011;62878;51.026;4.472;2022-09-03T02:40:12;0.10;;;0.10;;
74448;SDS011;62878;51.026;4.472;2022-09-03T02:42:37;0.20;;;0.13;;
74448;SDS011;62878;51.026;4.472;2022-09-03T02:45:09;1.10;;;0.20;;
74448;SDS011;62878;51.026;4.472;2022-09-03T02:47:53;0.30;;;0.20;;
74448;SDS011;62878;51.026;4.472;2022-09-03T02:50:22;0.30;;;0.20;;
74448;SDS011;62878;51.026;4.472;2022-09-03T02:52:48;0.35;;;0.20;;
74448;SDS011;62878;51.026;4.472;2022-09-03T02:55:15;0.28;;;0.20;;
74448;SDS011;62878;51.026;4.472;2022-09-03T02:57:41;0.30;;;0.20;;
74448;SDS011;62878;51.026;4.472;2022-09-03T03:00:06;0.52;;;0.20;;
74448;SDS011;62878;51.026;4.472;2022-09-03T03:02:32;0.57;;;0.10;;
74448;SDS011;62878;51.026;4.472;2022-09-03T03:04:58;0.68;;;0.30;;
74448;SDS011;62878;51.026;4.472;2022-09-03T03:07:24;0.43;;;0.20;;
74448;SDS011;62878;51.026;4.472;2022-09-03T03:09:50;0.20;;;0.20;;
74448;SDS011;62878;51.026;4.472;2022-09-03T03:12:16;0.70;;;0.50;;
74448;SDS011;62878;51.026;4.472;2022-09-03T03:14:42;0.35;;;0.30;;
74448;SDS011;62878;51.026;4.472;2022-09-03T03:17:07;0.45;;;0.20;;
74448;SDS011;62878;51.026;4.472;2022-09-03T03:19:34;0.20;;;0.20;;
74448;SDS011;62878;51.026;4.472;2022-09-03T03:22:00;0.20;;;0.20;;
74448;SDS011;62878;51.026;4.472;2022-09-03T03:24:25;0.30;;;0.20;;
74448;SDS011;62878;51.026;4.472;2022-09-03T03:26:53;0.30;;;0.30;;
74448;SDS011;62878;51.026;4.472;2022-09-03T03:29:21;0.40;;;0.22;;
74448;SDS011;62878;51.026;4.472;2022-09-03T03:31:46;0.73;;;0.40;;
74448;SDS011;62878;51.026;4.472;2022-09-03T03:34:12;0.30;;;0.20;;
74448;SDS011;62878;51.026;4.472;2022-09-03T03:36:37;0.43;;;0.20;;
74448;SDS011;62878;51.026;4.472;2022-09-03T03:39:03;0.35;;;0.30;;
74448;SDS011;62878;51.026;4.472;2022-09-03T03:41:30;0.40;;;0.30;;
74448;SDS011;62878;51.026;4.472;2022-09-03T03:43:57;0.20;;;0.20;;
74448;SDS011;62878;51.026;4.472;2022-09-03T03:46:27;0.40;;;0.30;;
74448;SDS011;62878;51.026;4.472;2022-09-03T03:48:54;0.40;;;0.20;;
74448;SDS011;62878;51.026;4.472;2022-09-03T03:51:20;0.80;;;0.30;;
74448;SDS011;62878;51.026;4.472;2022-09-03T03:53:45;1.95;;;0.30;;
74448;SDS011;62878;51.026;4.472;2022-09-03T03:56:12;0.63;;;0.30;;
74448;SDS011;62878;51.026;4.472;2022-09-03T03:58:39;0.35;;;0.28;;
74448;SDS011;62878;51.026;4.472;2022-09-03T04:01:09;1.00;;;0.40;;
74448;SDS011;62878;51.026;4.472;2022-09-03T04:03:37;4.55;;;0.20;;
74448;SDS011;62878;51.026;4.472;2022-09-03T04:06:02;5.68;;;0.40;;
74448;SDS011;62878;51.026;4.472;2022-09-03T04:08:29;0.82;;;0.30;;
74448;SDS011;62878;51.026;4.472;2022-09-03T04:10:59;0.60;;;0.30;;
74448;SDS011;62878;51.026;4.472;2022-09-03T04:13:32;3.30;;;0.30;;
74448;SDS011;62878;51.026;4.472;2022-09-03T04:16:00;2.17;;;0.50;;
74448;SDS011;62878;51.026;4.472;2022-09-03T04:18:45;0.30;;;0.20;;
74448;SDS011;62878;51.026;4.472;2022-09-03T04:21:12;0.43;;;0.40;;
74448;SDS011;62878;51.026;4.472;2022-09-03T04:23:40;0.38;;;0.30;;
74448;SDS011;62878;51.026;4.472;2022-09-03T04:26:07;0.75;;;0.25;;
74448;SDS011;62878;51.026;4.472;2022-09-03T04:28:33;1.33;;;0.30;;
74448;SDS011;62878;51.026;4.472;2022-09-03T04:31:04;1.42;;;0.30;;
74448;SDS011;62878;51.026;4.472;2022-09-03T04:33:31;0.50;;;0.30;;
74448;SDS011;62878;51.026;4.472;2022-09-03T04:38:41;1.10;;;0.30;;
74448;SDS011;62878;51.026;4.472;2022-09-03T04:41:09;0.80;;;0.30;;
74448;SDS011;62878;51.026;4.472;2022-09-03T04:43:36;2.05;;;0.40;;
74448;SDS011;62878;51.026;4.472;2022-09-03T04:46:03;0.70;;;0.30;;
74448;SDS011;62878;51.026;4.472;2022-09-03T04:48:30;0.57;;;0.30;;
74448;SDS011;62878;51.026;4.472;2022-09-03T04:51:00;0.80;;;0.20;;
74448;SDS011;62878;51.026;4.472;2022-09-03T04:53:33;0.40;;;0.30;;
74448;SDS011;62878;51.026;4.472;2022-09-03T04:56:01;0.47;;;0.22;;
74448;SDS011;62878;51.026;4.472;2022-09-03T04:58:27;0.90;;;0.30;;
74448;SDS011;62878;51.026;4.472;2022-09-03T05:00:53;0.20;;;0.20;;
74448;SDS011;62878;51.026;4.472;2022-09-03T05:03:18;0.93;;;0.30;;
74448;SDS011;62878;51.026;4.472;2022-09-03T05:05:51;0.50;;;0.30;;
74448;SDS011;62878;51.026;4.472;2022-09-03T05:08:18;0.63;;;0.23;;
74448;SDS011;62878;51.026;4.472;2022-09-03T05:10:43;0.30;;;0.30;;
74448;SDS011;62878;51.026;4.472;2022-09-03T05:13:08;0.50;;;0.30;;
74448;SDS011;62878;51.026;4.472;2022-09-03T05:15:34;0.70;;;0.30;;
74448;SDS011;62878;51.026;4.472;2022-09-03T05:18:00;0.30;;;0.30;;
74448;SDS011;62878;51.026;4.472;2022-09-03T05:20:27;0.30;;;0.30;;
74448;SDS011;62878;51.026;4.472;2022-09-03T05:23:00;0.50;;;0.20;;
74448;SDS011;62878;51.026;4.472;2022-09-03T05:25:28;0.50;;;0.50;;
74448;SDS011;62878;51.026;4.472;2022-09-03T05:27:56;1.13;;;0.28;;
74448;SDS011;62878;51.026;4.472;2022-09-03T05:30:22;0.50;;;0.30;;
74448;SDS011;62878;51.026;4.472;2022-09-03T05:32:48;1.15;;;0.30;;
74448;SDS011;62878;51.026;4.472;2022-09-03T05:35:14;0.77;;;0.40;;
74448;SDS011;62878;51.026;4.472;2022-09-03T05:37:39;0.32;;;0.30;;
74448;SDS011;62878;51.026;4.472;2022-09-03T05:40:05;1.30;;;0.50;;
74448;SDS011;62878;51.026;4.472;2022-09-03T05:42:35;0.75;;;0.28;;
74448;SDS011;62878;51.026;4.472;2022-09-03T05:45:02;1.75;;;0.30;;
74448;SDS011;62878;51.026;4.472;2022-09-03T05:47:35;0.35;;;0.20;;
74448;SDS011;62878;51.026;4.472;2022-09-03T05:50:07;0.40;;;0.30;;
74448;SDS011;62878;51.026;4.472;2022-09-03T05:52:34;0.38;;;0.30;;
74448;SDS011;62878;51.026;4.472;2022-09-03T05:55:00;0.43;;;0.20;;
74448;SDS011;62878;51.026;4.472;2022-09-03T05:57:26;0.40;;;0.30;;
74448;SDS011;62878;51.026;4.472;2022-09-03T05:59:53;0.30;;;0.30;;
74448;SDS011;62878;51.026;4.472;2022-09-03T06:02:18;0.30;;;0.20;;
74448;SDS011;62878;51.026;4.472;2022-09-03T06:04:44;0.40;;;0.30;;
74448;SDS011;62878;51.026;4.472;2022-09-03T06:07:10;0.60;;;0.30;;
74448;SDS011;62878;51.026;4.472;2022-09-03T06:09:35;0.32;;;0.30;;
74448;SDS011;62878;51.026;4.472;2022-09-03T06:12:01;0.30;;;0.30;;
74448;SDS011;62878;51.026;4.472;2022-09-03T06:14:26;0.50;;;0.30;;
74448;SDS011;62878;51.026;4.472;2022-09-03T06:16:52;0.98;;;0.30;;
74448;SDS011;62878;51.026;4.472;2022-09-03T06:19:18;1.00;;;0.20;;
74448;SDS011;62878;51.026;4.472;2022-09-03T06:21:44;0.63;;;0.30;;
74448;SDS011;62878;51.026;4.472;2022-09-03T06:24:14;0.50;;;0.40;;
74448;SDS011;62878;51.026;4.472;2022-09-03T06:26:42;0.45;;;0.30;;
74448;SDS011;62878;51.026;4.472;2022-09-03T06:29:08;0.30;;;0.20;;
74448;SDS011;62878;51.026;4.472;2022-09-03T06:31:33;0.57;;;0.30;;
74448;SDS011;62878;51.026;4.472;2022-09-03T06:33:59;1.58;;;0.30;;
74448;SDS011;62878;51.026;4.472;2022-09-03T06:36:26;2.05;;;0.30;;
74448;SDS011;62878;51.026;4.472;2022-09-03T06:38:52;0.82;;;0.40;;
74448;SDS011;62878;51.026;4.472;2022-09-03T06:41:20;0.30;;;0.30;;
74448;SDS011;62878;51.026;4.472;2022-09-03T06:43:49;0.50;;;0.30;;
74448;SDS011;62878;51.026;4.472;2022-09-03T06:46:18;0.60;;;0.40;;
74448;SDS011;62878;51.026;4.472;2022-09-03T06:48:45;1.40;;;0.40;;
74448;SDS011;62878;51.026;4.472;2022-09-03T06:51:12;0.30;;;0.30;;
74448;SDS011;62878;51.026;4.472;2022-09-03T06:53:42;1.92;;;0.47;;
74448;SDS011;62878;51.026;4.472;2022-09-03T06:56:10;0.65;;;0.30;;
74448;SDS011;62878;51.026;4.472;2022-09-03T06:58:37;0.98;;;0.30;;
74448;SDS011;62878;51.026;4.472;2022-09-03T07:01:09;0.47;;;0.40;;
74448;SDS011;62878;51.026;4.472;2022-09-03T07:03:38;0.50;;;0.20;;
74448;SDS011;62878;51.026;4.472;2022-09-03T07:06:05;0.30;;;0.30;;
74448;SDS011;62878;51.026;4.472;2022-09-03T07:08:33;0.60;;;0.32;;
74448;SDS011;62878;51.026;4.472;2022-09-03T07:10:59;0.40;;;0.30;;
74448;SDS011;62878;51.026;4.472;2022-09-03T07:16:05;2.92;;;0.25;;
74448;SDS011;62878;51.026;4.472;2022-09-03T07:18:33;0.57;;;0.28;;
74448;SDS011;62878;51.026;4.472;2022-09-03T07:21:03;0.50;;;0.30;;
74448;SDS011;62878;51.026;4.472;2022-09-03T07:23:30;0.50;;;0.30;;
74448;SDS011;62878;51.026;4.472;2022-09-03T07:25:56;0.63;;;0.40;;
74448;SDS011;62878;51.026;4.472;2022-09-03T07:28:23;0.20;;;0.20;;
74448;SDS011;62878;51.026;4.472;2022-09-03T07:30:50;0.30;;;0.20;;
74448;SDS011;62878;51.026;4.472;2022-09-03T07:33:16;0.38;;;0.30;;
74448;SDS011;62878;51.026;4.472;2022-09-03T07:35:42;0.55;;;0.32;;
74448;SDS011;62878;51.026;4.472;2022-09-03T07:38:08;0.50;;;0.30;;
74448;SDS011;62878;51.026;4.472;2022-09-03T07:40:34;0.52;;;0.30;;
74448;SDS011;62878;51.026;4.472;2022-09-03T07:42:59;0.55;;;0.30;;
74448;SDS011;62878;51.026;4.472;2022-09-03T07:45:27;0.45;;;0.30;;
74448;SDS011;62878;51.026;4.472;2022-09-03T07:47:53;0.30;;;0.30;;
74448;SDS011;62878;51.026;4.472;2022-09-03T07:50:18;0.57;;;0.40;;
74448;SDS011;62878;51.026;4.472;2022-09-03T07:52:44;0.30;;;0.30;;
74448;SDS011;62878;51.026;4.472;2022-09-03T07:55:14;0.40;;;0.30;;
74448;SDS011;62878;51.026;4.472;2022-09-03T07:57:39;0.30;;;0.30;;
74448;SDS011;62878;51.026;4.472;2022-09-03T08:00:06;0.47;;;0.30;;
74448;SDS011;62878;51.026;4.472;2022-09-03T08:02:33;0.38;;;0.22;;
74448;SDS011;62878;51.026;4.472;2022-09-03T08:04:58;0.40;;;0.30;;
74448;SDS011;62878;51.026;4.472;2022-09-03T08:07:24;0.32;;;0.30;;
74448;SDS011;62878;51.026;4.472;2022-09-03T08:09:50;0.80;;;0.30;;
74448;SDS011;62878;51.026;4.472;2022-09-03T08:12:16;1.50;;;0.30;;
74448;SDS011;62878;51.026;4.472;2022-09-03T08:14:41;0.20;;;0.20;;
74448;SDS011;62878;51.026;4.472;2022-09-03T08:17:07;1.40;;;0.30;;
74448;SDS011;62878;51.026;4.472;2022-09-03T08:19:32;0.30;;;0.20;;
74448;SDS011;62878;51.026;4.472;2022-09-03T08:21:58;0.30;;;0.22;;
74448;SDS011;62878;51.026;4.472;2022-09-03T08:24:24;0.40;;;0.30;;
74448;SDS011;62878;51.026;4.472;2022-09-03T08:26:50;0.68;;;0.30;;
74448;SDS011;62878;51.026;4.472;2022-09-03T08:29:16;0.40;;;0.28;;
74448;SDS011;62878;51.026;4.472;2022-09-03T08:31:42;0.43;;;0.30;;
74448;SDS011;62878;51.026;4.472;2022-09-03T08:34:08;1.13;;;0.30;;
74448;SDS011;62878;51.026;4.472;2022-09-03T08:36:36;0.50;;;0.20;;
74448;SDS011;62878;51.026;4.472;2022-09-03T08:39:04;1.65;;;0.30;;
74448;SDS011;62878;51.026;4.472;2022-09-03T08:41:47;0.55;;;0.40;;
74448;SDS011;62878;51.026;4.472;2022-09-03T08:57:48;0.98;;;0.30;;
74448;SDS011;62878;51.026;4.472;2022-09-03T09:00:17;0.43;;;0.30;;
74448;SDS011;62878;51.026;4.472;2022-09-03T09:02:56;0.20;;;0.20;;
74448;SDS011;62878;51.026;4.472;2022-09-03T09:05:51;0.55;;;0.30;;
74448;SDS011;62878;51.026;4.472;2022-09-03T09:08:27;0.70;;;0.40;;
74448;SDS011;62878;51.026;4.472;2022-09-03T09:21:39;0.85;;;0.40;;
74448;SDS011;62878;51.026;4.472;2022-09-03T09:24:17;0.40;;;0.35;;
74448;SDS011;62878;51.026;4.472;2022-09-03T09:26:47;0.25;;;0.20;;
74448;SDS011;62878;51.026;4.472;2022-09-03T09:29:13;0.55;;;0.40;;
74448;SDS011;62878;51.026;4.472;2022-09-03T09:31:40;1.33;;;0.40;;
74448;SDS011;62878;51.026;4.472;2022-09-03T09:34:09;0.60;;;0.30;;
74448;SDS011;62878;51.026;4.472;2022-09-03T09:36:55;1.90;;;0.40;;
74448;SDS011;62878;51.026;4.472;2022-09-03T09:39:21;0.98;;;0.30;;
74448;SDS011;62878;51.026;4.472;2022-09-03T09:42:21;0.50;;;0.30;;
74448;SDS011;62878;51.026;4.472;2022-09-03T09:44:40;0.82;;;0.35;;
74448;SDS011;62878;51.026;4.472;2022-09-03T09:47:24;0.68;;;0.30;;
74448;SDS011;62878;51.026;4.472;2022-09-03T09:49:56;1.23;;;0.30;;
74448;SDS011;62878;51.026;4.472;2022-09-03T09:52:24;0.65;;;0.30;;
74448;SDS011;62878;51.026;4.472;2022-09-03T09:54:53;1.00;;;0.40;;
74448;SDS011;62878;51.026;4.472;2022-09-03T09:57:34;1.02;;;0.60;;
74448;SDS011;62878;51.026;4.472;2022-09-03T10:00:04;5.78;;;0.82;;
74448;SDS011;62878;51.026;4.472;2022-09-03T10:02:36;3.10;;;0.70;;
74448;SDS011;62878;51.026;4.472;2022-09-03T10:07:39;1.33;;;1.00;;
74448;SDS011;62878;51.026;4.472;2022-09-03T10:10:06;2.58;;;0.60;;
74448;SDS011;62878;51.026;4.472;2022-09-03T10:12:47;1.30;;;0.70;;
74448;SDS011;62878;51.026;4.472;2022-09-03T10:23:50;2.38;;;0.70;;
74448;SDS011;62878;51.026;4.472;2022-09-03T10:26:22;0.80;;;0.50;;
74448;SDS011;62878;51.026;4.472;2022-09-03T10:28:55;3.42;;;1.70;;
74448;SDS011;62878;51.026;4.472;2022-09-03T10:37:21;1.50;;;0.88;;
74448;SDS011;62878;51.026;4.472;2022-09-03T10:45:38;0.90;;;0.50;;
74448;SDS011;62878;51.026;4.472;2022-09-03T10:50:55;1.73;;;0.63;;
74448;SDS011;62878;51.026;4.472;2022-09-03T11:04:38;1.93;;;1.47;;
74448;SDS011;62878;51.026;4.472;2022-09-03T11:07:30;4.32;;;1.30;;
74448;SDS011;62878;51.026;4.472;2022-09-03T11:12:40;2.28;;;1.08;;
74448;SDS011;62878;51.026;4.472;2022-09-03T11:20:46;1.20;;;1.02;;
74448;SDS011;62878;51.026;4.472;2022-09-03T11:23:15;2.30;;;0.88;;
74448;SDS011;62878;51.026;4.472;2022-09-03T11:25:46;1.90;;;1.10;;
74448;SDS011;62878;51.026;4.472;2022-09-03T11:28:19;1.77;;;1.05;;
74448;SDS011;62878;51.026;4.472;2022-09-03T11:31:04;2.22;;;0.77;;
74448;SDS011;62878;51.026;4.472;2022-09-03T11:33:40;1.83;;;0.85;;
74448;SDS011;62878;51.026;4.472;2022-09-03T11:36:34;3.67;;;0.80;;
74448;SDS011;62878;51.026;4.472;2022-09-03T11:42:01;2.40;;;0.80;;
74448;SDS011;62878;51.026;4.472;2022-09-03T11:44:36;1.88;;;0.63;;
74448;SDS011;62878;51.026;4.472;2022-09-03T11:49:45;1.50;;;0.82;;
74448;SDS011;62878;51.026;4.472;2022-09-03T11:52:13;5.20;;;1.17;;
74448;SDS011;62878;51.026;4.472;2022-09-03T11:54:56;2.13;;;0.85;;
74448;SDS011;62878;51.026;4.472;2022-09-03T11:57:24;1.45;;;0.90;;
74448;SDS011;62878;51.026;4.472;2022-09-03T12:00:05;2.88;;;0.70;;
74448;SDS011;62878;51.026;4.472;2022-09-03T12:03:00;1.57;;;0.60;;
74448;SDS011;62878;51.026;4.472;2022-09-03T12:13:32;0.93;;;0.60;;
74448;SDS011;62878;51.026;4.472;2022-09-03T12:18:39;2.50;;;0.82;;
74448;SDS011;62878;51.026;4.472;2022-09-03T12:21:06;1.50;;;0.80;;
74448;SDS011;62878;51.026;4.472;2022-09-03T12:23:43;0.82;;;0.70;;
74448;SDS011;62878;51.026;4.472;2022-09-03T12:26:17;2.53;;;0.85;;
74448;SDS011;62878;51.026;4.472;2022-09-03T12:31:18;1.05;;;0.77;;
74448;SDS011;62878;51.026;4.472;2022-09-03T12:33:58;2.65;;;0.90;;
74448;SDS011;62878;51.026;4.472;2022-09-03T12:36:48;2.50;;;0.82;;
74448;SDS011;62878;51.026;4.472;2022-09-03T12:39:17;4.07;;;0.80;;
74448;SDS011;62878;51.026;4.472;2022-09-03T12:41:58;3.33;;;1.05;;
74448;SDS011;62878;51.026;4.472;2022-09-03T12:44:48;2.80;;;1.25;;
74448;SDS011;62878;51.026;4.472;2022-09-03T12:47:14;6.70;;;0.90;;
74448;SDS011;62878;51.026;4.472;2022-09-03T12:49:43;22.05;;;1.85;;
74448;SDS011;62878;51.026;4.472;2022-09-03T12:52:30;3.15;;;1.00;;
74448;SDS011;62878;51.026;4.472;2022-09-03T12:57:44;1.30;;;0.98;;
74448;SDS011;62878;51.026;4.472;2022-09-03T13:00:17;1.58;;;1.40;;
74448;SDS011;62878;51.026;4.472;2022-09-03T13:02:45;2.00;;;1.15;;
74448;SDS011;62878;51.026;4.472;2022-09-03T13:05:17;4.35;;;0.88;;
74448;SDS011;62878;51.026;4.472;2022-09-03T13:07:50;3.35;;;0.88;;
74448;SDS011;62878;51.026;4.472;2022-09-03T13:12:48;1.40;;;1.25;;
74448;SDS011;62878;51.026;4.472;2022-09-03T13:15:21;4.43;;;1.00;;
74448;SDS011;62878;51.026;4.472;2022-09-03T13:20:32;2.30;;;0.70;;
74448;SDS011;62878;51.026;4.472;2022-09-03T13:25:54;2.58;;;1.15;;
74448;SDS011;62878;51.026;4.472;2022-09-03T13:28:34;2.38;;;0.80;;
74448;SDS011;62878;51.026;4.472;2022-09-03T13:31:31;2.08;;;0.80;;
74448;SDS011;62878;51.026;4.472;2022-09-03T13:37:09;3.50;;;0.95;;
74448;SDS011;62878;51.026;4.472;2022-09-03T13:39:42;1.95;;;0.85;;
74448;SDS011;62878;51.026;4.472;2022-09-03T13:44:54;2.28;;;1.10;;
74448;SDS011;62878;51.026;4.472;2022-09-03T13:47:42;2.65;;;0.63;;
74448;SDS011;62878;51.026;4.472;2022-09-03T13:50:38;3.28;;;0.95;;
74448;SDS011;62878;51.026;4.472;2022-09-03T13:53:17;1.92;;;1.00;;
74448;SDS011;62878;51.026;4.472;2022-09-03T13:55:56;4.57;;;0.77;;
74448;SDS011;62878;51.026;4.472;2022-09-03T13:58:36;3.22;;;1.10;;
74448;SDS011;62878;51.026;4.472;2022-09-03T14:03:52;0.93;;;0.50;;
74448;SDS011;62878;51.026;4.472;2022-09-03T14:09:19;0.93;;;0.70;;
74448;SDS011;62878;51.026;4.472;2022-09-03T14:12:03;1.95;;;0.50;;
74448;SDS011;62878;51.026;4.472;2022-09-03T14:20:05;3.42;;;0.90;;
74448;SDS011;62878;51.026;4.472;2022-09-03T14:25:39;1.30;;;0.70;;
74448;SDS011;62878;51.026;4.472;2022-09-03T14:34:15;1.75;;;0.70;;
74448;SDS011;62878;51.026;4.472;2022-09-03T14:39:58;1.92;;;0.70;;
74448;SDS011;62878;51.026;4.472;2022-09-03T14:48:16;3.33;;;0.93;;
74448;SDS011;62878;51.026;4.472;2022-09-03T14:58:51;2.38;;;0.80;;
74448;SDS011;62878;51.026;4.472;2022-09-03T15:01:36;2.30;;;0.63;;
74448;SDS011;62878;51.026;4.472;2022-09-03T15:07:15;2.08;;;0.70;;
74448;SDS011;62878;51.026;4.472;2022-09-03T15:13:08;2.28;;;0.60;;
74448;SDS011;62878;51.026;4.472;2022-09-03T15:15:45;0.77;;;0.50;;
74448;SDS011;62878;51.026;4.472;2022-09-03T15:18:59;1.48;;;0.80;;
74448;SDS011;62878;51.026;4.472;2022-09-03T15:21:40;0.98;;;0.50;;
74448;SDS011;62878;51.026;4.472;2022-09-03T15:32:13;1.92;;;0.75;;
74448;SDS011;62878;51.026;4.472;2022-09-03T15:37:29;0.95;;;0.63;;
74448;SDS011;62878;51.026;4.472;2022-09-03T15:40:21;5.97;;;1.25;;
74448;SDS011;62878;51.026;4.472;2022-09-03T15:42:45;2.40;;;0.80;;
74448;SDS011;62878;51.026;4.472;2022-09-03T15:56:26;3.70;;;1.10;;
74448;SDS011;62878;51.026;4.472;2022-09-03T16:15:11;4.03;;;0.95;;
74448;SDS011;62878;51.026;4.472;2022-09-03T16:20:48;1.83;;;1.17;;
74448;SDS011;62878;51.026;4.472;2022-09-03T16:23:25;1.95;;;0.80;;
74448;SDS011;62878;51.026;4.472;2022-09-03T16:26:03;5.75;;;1.02;;
74448;SDS011;62878;51.026;4.472;2022-09-03T16:28:59;1.92;;;0.70;;
74448;SDS011;62878;51.026;4.472;2022-09-03T16:47:55;3.03;;;0.85;;
74448;SDS011;62878;51.026;4.472;2022-09-03T16:57:07;2.63;;;0.80;;
74448;SDS011;62878;51.026;4.472;2022-09-03T17:11:05;1.63;;;0.85;;
74448;SDS011;62878;51.026;4.472;2022-09-03T17:21:21;1.30;;;0.70;;
74448;SDS011;62878;51.026;4.472;2022-09-03T17:37:22;2.97;;;0.93;;
74448;SDS011;62878;51.026;4.472;2022-09-03T17:48:29;1.95;;;0.90;;
74448;SDS011;62878;51.026;4.472;2022-09-03T17:51:03;2.75;;;0.70;;
74448;SDS011;62878;51.026;4.472;2022-09-03T17:53:38;5.22;;;0.90;;
74448;SDS011;62878;51.026;4.472;2022-09-03T17:58:48;0.60;;;0.60;;
74448;SDS011;62878;51.026;4.472;2022-09-03T18:01:19;2.33;;;1.15;;
74448;SDS011;62878;51.026;4.472;2022-09-03T18:11:48;0.82;;;0.63;;
74448;SDS011;62878;51.026;4.472;2022-09-03T18:22:48;1.95;;;0.75;;
74448;SDS011;62878;51.026;4.472;2022-09-03T18:25:36;2.10;;;0.98;;
74448;SDS011;62878;51.026;4.472;2022-09-03T18:28:26;0.95;;;0.70;;
74448;SDS011;62878;51.026;4.472;2022-09-03T18:31:46;1.30;;;0.55;;
74448;SDS011;62878;51.026;4.472;2022-09-03T18:34:32;1.08;;;0.40;;
74448;SDS011;62878;51.026;4.472;2022-09-03T18:37:18;1.15;;;0.65;;
74448;SDS011;62878;51.026;4.472;2022-09-03T18:40:05;1.77;;;0.63;;
74448;SDS011;62878;51.026;4.472;2022-09-03T18:42:58;1.05;;;0.60;;
74448;SDS011;62878;51.026;4.472;2022-09-03T18:49:01;1.55;;;0.88;;
74448;SDS011;62878;51.026;4.472;2022-09-03T19:01:17;0.60;;;0.45;;
74448;SDS011;62878;51.026;4.472;2022-09-03T19:04:13;1.48;;;0.60;;
74448;SDS011;62878;51.026;4.472;2022-09-03T19:13:04;1.00;;;0.50;;
74448;SDS011;62878;51.026;4.472;2022-09-03T19:16:08;1.70;;;0.52;;
74448;SDS011;62878;51.026;4.472;2022-09-03T19:21:58;1.83;;;0.50;;
74448;SDS011;62878;51.026;4.472;2022-09-03T19:24:51;3.22;;;0.50;;
74448;SDS011;62878;51.026;4.472;2022-09-03T19:33:51;1.85;;;0.43;;
74448;SDS011;62878;51.026;4.472;2022-09-03T19:37:07;1.65;;;0.50;;
74448;SDS011;62878;51.026;4.472;2022-09-03T19:42:51;0.80;;;0.47;;
74448;SDS011;62878;51.026;4.472;2022-09-03T19:55:43;0.43;;;0.40;;
74448;SDS011;62878;51.026;4.472;2022-09-03T19:58:29;1.63;;;0.57;;
74448;SDS011;62878;51.026;4.472;2022-09-03T20:01:15;0.60;;;0.40;;
74448;SDS011;62878;51.026;4.472;2022-09-03T20:04:20;0.43;;;0.40;;
74448;SDS011;62878;51.026;4.472;2022-09-03T20:07:12;0.70;;;0.30;;
74448;SDS011;62878;51.026;4.472;2022-09-03T20:09:56;1.85;;;0.40;;
74448;SDS011;62878;51.026;4.472;2022-09-03T20:12:44;0.70;;;0.40;;
74448;SDS011;62878;51.026;4.472;2022-09-03T20:15:14;1.02;;;0.50;;
74448;SDS011;62878;51.026;4.472;2022-09-03T20:20:43;4.65;;;0.50;;
74448;SDS011;62878;51.026;4.472;2022-09-03T20:23:19;2.55;;;0.60;;
74448;SDS011;62878;51.026;4.472;2022-09-03T20:28:52;2.05;;;0.60;;
74448;SDS011;62878;51.026;4.472;2022-09-03T20:31:45;3.65;;;0.40;;
74448;SDS011;62878;51.026;4.472;2022-09-03T20:34:38;0.55;;;0.40;;
74448;SDS011;62878;51.026;4.472;2022-09-03T20:37:23;4.22;;;0.50;;
74448;SDS011;62878;51.026;4.472;2022-09-03T20:42:39;0.85;;;0.35;;
74448;SDS011;62878;51.026;4.472;2022-09-03T20:45:17;0.45;;;0.35;;
74448;SDS011;62878;51.026;4.472;2022-09-03T20:53:22;0.40;;;0.35;;
74448;SDS011;62878;51.026;4.472;2022-09-03T20:56:19;0.80;;;0.40;;
74448;SDS011;62878;51.026;4.472;2022-09-03T21:13:03;2.70;;;0.30;;
74448;SDS011;62878;51.026;4.472;2022-09-03T21:15:36;0.70;;;0.28;;
74448;SDS011;62878;51.026;4.472;2022-09-03T21:23:41;1.02;;;0.30;;
74448;SDS011;62878;51.026;4.472;2022-09-03T21:26:14;0.30;;;0.30;;
74448;SDS011;62878;51.026;4.472;2022-09-03T21:28:50;0.85;;;0.40;;
74448;SDS011;62878;51.026;4.472;2022-09-03T21:31:18;1.10;;;0.63;;
74448;SDS011;62878;51.026;4.472;2022-09-03T21:33:50;0.65;;;0.30;;
74448;SDS011;62878;51.026;4.472;2022-09-03T21:36:28;0.68;;;0.30;;
74448;SDS011;62878;51.026;4.472;2022-09-03T21:38:58;0.90;;;0.30;;
74448;SDS011;62878;51.026;4.472;2022-09-03T21:44:45;1.17;;;0.40;;
74448;SDS011;62878;51.026;4.472;2022-09-03T21:47:16;0.40;;;0.30;;
74448;SDS011;62878;51.026;4.472;2022-09-03T21:52:56;0.65;;;0.30;;
74448;SDS011;62878;51.026;4.472;2022-09-03T21:58:23;1.25;;;0.30;;
74448;SDS011;62878;51.026;4.472;2022-09-03T22:01:03;0.20;;;0.20;;
74448;SDS011;62878;51.026;4.472;2022-09-03T22:03:36;1.70;;;0.50;;
74448;SDS011;62878;51.026;4.472;2022-09-03T22:06:02;1.23;;;0.30;;
74448;SDS011;62878;51.026;4.472;2022-09-03T22:08:44;0.43;;;0.20;;
74448;SDS011;62878;51.026;4.472;2022-09-03T22:14:02;0.38;;;0.32;;
74448;SDS011;62878;51.026;4.472;2022-09-03T22:16:36;1.40;;;0.25;;